sensor_id;sensor_type;location;lat;lon;timestamp;P1;durP1;ratioP1;P2;durP2;ratioP2
20559;SDS011;10438;51.454;6.718;2023-04-15T00:01:54;12.67;;;6.40;;
20559;SDS011;10438;51.454;6.718;2023-04-15T00:04:22;16.17;;;7.97;;
20559;SDS011;10438;51.454;6.718;2023-04-15T00:06:51;13.30;;;7.67;;
20559;SDS011;10438;51.454;6.718;2023-04-15T00:09:17;11.67;;;6.63;;
20559;SDS011;10438;51.454;6.718;2023-04-15T00:11:43;18.67;;;7.70;;
20559;SDS011;10438;51.454;6.718;2023-04-15T00:14:10;17.27;;;7.13;;
20559;SDS011;10438;51.454;6.718;2023-04-15T00:16:36;14.23;;;6.83;;
20559;SDS011;10438;51.454;6.718;2023-04-15T00:19:02;12.07;;;7.27;;
20559;SDS011;10438;51.454;6.718;2023-04-15T00:21:27;15.07;;;6.77;;
20559;SDS011;10438;51.454;6.718;2023-04-15T00:23:53;16.83;;;7.60;;
20559;SDS011;10438;51.454;6.718;2023-04-15T00:26:19;19.23;;;6.73;;
20559;SDS011;10438;51.454;6.718;2023-04-15T00:28:45;12.93;;;7.80;;
20559;SDS011;10438;51.454;6.718;2023-04-15T00:31:12;14.10;;;7.20;;
20559;SDS011;10438;51.454;6.718;2023-04-15T00:33:38;14.80;;;7.27;;
20559;SDS011;10438;51.454;6.718;2023-04-15T00:36:05;17.23;;;8.20;;
20559;SDS011;10438;51.454;6.718;2023-04-15T00:38:31;13.33;;;7.40;;
20559;SDS011;10438;51.454;6.718;2023-04-15T00:40:57;15.07;;;7.73;;
20559;SDS011;10438;51.454;6.718;2023-04-15T00:43:23;16.73;;;7.50;;
20559;SDS011;10438;51.454;6.718;2023-04-15T00:45:50;13.30;;;7.47;;
20559;SDS011;10438;51.454;6.718;2023-04-15T00:48:17;14.17;;;7.00;;
20559;SDS011;10438;51.454;6.718;2023-04-15T00:50:43;13.77;;;7.00;;
20559;SDS011;10438;51.454;6.718;2023-04-15T00:53:09;13.37;;;7.47;;
20559;SDS011;10438;51.454;6.718;2023-04-15T00:55:35;13.37;;;7.63;;
20559;SDS011;10438;51.454;6.718;2023-04-15T00:58:01;14.63;;;7.40;;
20559;SDS011;10438;51.454;6.718;2023-04-15T01:00:27;13.30;;;7.43;;
20559;SDS011;10438;51.454;6.718;2023-04-15T01:02:54;20.40;;;7.50;;
20559;SDS011;10438;51.454;6.718;2023-04-15T01:05:19;12.57;;;7.07;;
20559;SDS011;10438;51.454;6.718;2023-04-15T01:07:45;14.73;;;7.87;;
20559;SDS011;10438;51.454;6.718;2023-04-15T01:10:12;14.47;;;7.77;;
20559;SDS011;10438;51.454;6.718;2023-04-15T01:12:38;17.40;;;7.97;;
20559;SDS011;10438;51.454;6.718;2023-04-15T01:15:04;16.00;;;8.13;;
20559;SDS011;10438;51.454;6.718;2023-04-15T01:17:30;13.47;;;7.57;;
20559;SDS011;10438;51.454;6.718;2023-04-15T01:19:56;13.43;;;7.83;;
20559;SDS011;10438;51.454;6.718;2023-04-15T01:22:22;17.13;;;8.17;;
20559;SDS011;10438;51.454;6.718;2023-04-15T01:24:53;16.70;;;8.20;;
20559;SDS011;10438;51.454;6.718;2023-04-15T01:27:23;18.53;;;8.00;;
20559;SDS011;10438;51.454;6.718;2023-04-15T01:29:50;18.13;;;8.23;;
20559;SDS011;10438;51.454;6.718;2023-04-15T01:32:15;15.90;;;7.63;;
20559;SDS011;10438;51.454;6.718;2023-04-15T01:34:41;15.40;;;8.23;;
20559;SDS011;10438;51.454;6.718;2023-04-15T01:37:06;22.27;;;9.00;;
20559;SDS011;10438;51.454;6.718;2023-04-15T01:39:32;15.87;;;8.87;;
20559;SDS011;10438;51.454;6.718;2023-04-15T01:41:57;15.23;;;9.03;;
20559;SDS011;10438;51.454;6.718;2023-04-15T01:44:23;14.90;;;8.57;;
20559;SDS011;10438;51.454;6.718;2023-04-15T01:46:48;13.77;;;8.30;;
20559;SDS011;10438;51.454;6.718;2023-04-15T01:49:14;20.43;;;8.37;;
20559;SDS011;10438;51.454;6.718;2023-04-15T01:51:39;16.83;;;9.27;;
20559;SDS011;10438;51.454;6.718;2023-04-15T01:54:05;16.80;;;8.80;;
20559;SDS011;10438;51.454;6.718;2023-04-15T01:56:31;15.83;;;9.40;;
20559;SDS011;10438;51.454;6.718;2023-04-15T01:58:56;17.83;;;8.80;;
20559;SDS011;10438;51.454;6.718;2023-04-15T02:01:22;16.23;;;9.07;;
20559;SDS011;10438;51.454;6.718;2023-04-15T02:03:47;16.53;;;9.70;;
20559;SDS011;10438;51.454;6.718;2023-04-15T02:06:13;14.90;;;9.20;;
20559;SDS011;10438;51.454;6.718;2023-04-15T02:08:38;14.93;;;8.50;;
20559;SDS011;10438;51.454;6.718;2023-04-15T02:11:04;18.20;;;9.47;;
20559;SDS011;10438;51.454;6.718;2023-04-15T02:13:29;16.07;;;8.43;;
20559;SDS011;10438;51.454;6.718;2023-04-15T02:15:55;16.60;;;8.97;;
20559;SDS011;10438;51.454;6.718;2023-04-15T02:18:21;16.87;;;8.90;;
20559;SDS011;10438;51.454;6.718;2023-04-15T02:20:46;14.20;;;8.70;;
20559;SDS011;10438;51.454;6.718;2023-04-15T02:23:12;17.07;;;8.80;;
20559;SDS011;10438;51.454;6.718;2023-04-15T02:25:38;14.93;;;8.47;;
20559;SDS011;10438;51.454;6.718;2023-04-15T02:28:04;16.40;;;8.67;;
20559;SDS011;10438;51.454;6.718;2023-04-15T02:30:30;18.23;;;8.90;;
20559;SDS011;10438;51.454;6.718;2023-04-15T02:32:57;15.17;;;9.07;;
20559;SDS011;10438;51.454;6.718;2023-04-15T02:35:22;14.13;;;8.50;;
20559;SDS011;10438;51.454;6.718;2023-04-15T02:37:49;14.23;;;8.43;;
20559;SDS011;10438;51.454;6.718;2023-04-15T02:40:15;17.13;;;8.43;;
20559;SDS011;10438;51.454;6.718;2023-04-15T02:42:41;17.10;;;8.73;;
20559;SDS011;10438;51.454;6.718;2023-04-15T02:45:08;15.50;;;9.13;;
20559;SDS011;10438;51.454;6.718;2023-04-15T02:47:34;16.07;;;9.23;;
20559;SDS011;10438;51.454;6.718;2023-04-15T02:50:01;17.50;;;9.23;;
20559;SDS011;10438;51.454;6.718;2023-04-15T02:52:30;14.47;;;8.70;;
20559;SDS011;10438;51.454;6.718;2023-04-15T02:54:56;14.57;;;9.40;;
20559;SDS011;10438;51.454;6.718;2023-04-15T02:57:25;16.27;;;9.57;;
20559;SDS011;10438;51.454;6.718;2023-04-15T02:59:52;16.83;;;9.83;;
20559;SDS011;10438;51.454;6.718;2023-04-15T03:02:17;24.17;;;10.37;;
20559;SDS011;10438;51.454;6.718;2023-04-15T03:04:43;18.53;;;10.37;;
20559;SDS011;10438;51.454;6.718;2023-04-15T03:07:08;16.37;;;9.57;;
20559;SDS011;10438;51.454;6.718;2023-04-15T03:09:34;17.80;;;10.20;;
20559;SDS011;10438;51.454;6.718;2023-04-15T03:12:00;16.00;;;8.63;;
20559;SDS011;10438;51.454;6.718;2023-04-15T03:14:26;21.70;;;9.20;;
20559;SDS011;10438;51.454;6.718;2023-04-15T03:16:51;18.67;;;9.87;;
20559;SDS011;10438;51.454;6.718;2023-04-15T03:19:17;18.63;;;9.73;;
20559;SDS011;10438;51.454;6.718;2023-04-15T03:21:42;20.33;;;9.60;;
20559;SDS011;10438;51.454;6.718;2023-04-15T03:24:08;15.87;;;9.87;;
20559;SDS011;10438;51.454;6.718;2023-04-15T03:26:33;25.87;;;10.17;;
20559;SDS011;10438;51.454;6.718;2023-04-15T03:28:59;18.27;;;10.40;;
20559;SDS011;10438;51.454;6.718;2023-04-15T03:31:25;18.90;;;9.40;;
20559;SDS011;10438;51.454;6.718;2023-04-15T03:33:50;18.70;;;9.40;;
20559;SDS011;10438;51.454;6.718;2023-04-15T03:36:16;17.40;;;9.43;;
20559;SDS011;10438;51.454;6.718;2023-04-15T03:38:41;20.83;;;11.37;;
20559;SDS011;10438;51.454;6.718;2023-04-15T03:41:07;18.70;;;10.27;;
20559;SDS011;10438;51.454;6.718;2023-04-15T03:43:33;19.93;;;10.47;;
20559;SDS011;10438;51.454;6.718;2023-04-15T03:45:59;21.33;;;10.10;;
20559;SDS011;10438;51.454;6.718;2023-04-15T03:48:25;19.37;;;10.17;;
20559;SDS011;10438;51.454;6.718;2023-04-15T03:50:50;19.37;;;10.50;;
20559;SDS011;10438;51.454;6.718;2023-04-15T03:53:16;17.77;;;9.87;;
20559;SDS011;10438;51.454;6.718;2023-04-15T03:55:41;21.30;;;9.47;;
20559;SDS011;10438;51.454;6.718;2023-04-15T03:58:07;21.87;;;9.60;;
20559;SDS011;10438;51.454;6.718;2023-04-15T04:00:36;16.93;;;9.37;;
20559;SDS011;10438;51.454;6.718;2023-04-15T04:03:02;15.53;;;9.30;;
20559;SDS011;10438;51.454;6.718;2023-04-15T04:05:28;14.27;;;8.77;;
20559;SDS011;10438;51.454;6.718;2023-04-15T04:07:54;19.93;;;9.33;;
20559;SDS011;10438;51.454;6.718;2023-04-15T04:10:19;20.77;;;9.83;;
20559;SDS011;10438;51.454;6.718;2023-04-15T04:12:45;20.70;;;9.97;;
20559;SDS011;10438;51.454;6.718;2023-04-15T04:15:11;17.60;;;10.10;;
20559;SDS011;10438;51.454;6.718;2023-04-15T04:17:36;20.47;;;10.57;;
20559;SDS011;10438;51.454;6.718;2023-04-15T04:20:02;17.07;;;9.77;;
20559;SDS011;10438;51.454;6.718;2023-04-15T04:22:27;20.73;;;10.97;;
20559;SDS011;10438;51.454;6.718;2023-04-15T04:24:53;17.63;;;10.07;;
20559;SDS011;10438;51.454;6.718;2023-04-15T04:27:18;22.33;;;10.23;;
20559;SDS011;10438;51.454;6.718;2023-04-15T04:29:44;20.93;;;10.33;;
20559;SDS011;10438;51.454;6.718;2023-04-15T04:32:11;21.40;;;9.93;;
20559;SDS011;10438;51.454;6.718;2023-04-15T04:34:37;21.10;;;10.57;;
20559;SDS011;10438;51.454;6.718;2023-04-15T04:37:02;19.50;;;10.70;;
20559;SDS011;10438;51.454;6.718;2023-04-15T04:39:28;23.53;;;11.07;;
20559;SDS011;10438;51.454;6.718;2023-04-15T04:41:53;20.60;;;10.83;;
20559;SDS011;10438;51.454;6.718;2023-04-15T04:44:19;19.47;;;9.93;;
20559;SDS011;10438;51.454;6.718;2023-04-15T04:46:46;19.00;;;10.03;;
20559;SDS011;10438;51.454;6.718;2023-04-15T04:49:11;17.90;;;10.17;;
20559;SDS011;10438;51.454;6.718;2023-04-15T04:51:37;17.03;;;10.53;;
20559;SDS011;10438;51.454;6.718;2023-04-15T04:54:02;20.20;;;9.77;;
20559;SDS011;10438;51.454;6.718;2023-04-15T04:56:28;16.33;;;10.30;;
20559;SDS011;10438;51.454;6.718;2023-04-15T04:58:53;17.60;;;10.50;;
20559;SDS011;10438;51.454;6.718;2023-04-15T05:01:19;18.90;;;10.73;;
20559;SDS011;10438;51.454;6.718;2023-04-15T05:03:45;20.30;;;9.70;;
20559;SDS011;10438;51.454;6.718;2023-04-15T05:06:10;22.07;;;11.33;;
20559;SDS011;10438;51.454;6.718;2023-04-15T05:08:36;16.43;;;10.77;;
20559;SDS011;10438;51.454;6.718;2023-04-15T05:11:02;14.63;;;9.70;;
20559;SDS011;10438;51.454;6.718;2023-04-15T05:13:28;16.30;;;10.73;;
20559;SDS011;10438;51.454;6.718;2023-04-15T05:15:54;17.03;;;10.33;;
20559;SDS011;10438;51.454;6.718;2023-04-15T05:18:19;25.20;;;10.23;;
20559;SDS011;10438;51.454;6.718;2023-04-15T05:20:45;19.23;;;9.97;;
20559;SDS011;10438;51.454;6.718;2023-04-15T05:23:10;17.97;;;10.17;;
20559;SDS011;10438;51.454;6.718;2023-04-15T05:25:36;14.43;;;9.70;;
20559;SDS011;10438;51.454;6.718;2023-04-15T05:28:02;16.07;;;9.43;;
20559;SDS011;10438;51.454;6.718;2023-04-15T05:30:27;14.43;;;8.97;;
20559;SDS011;10438;51.454;6.718;2023-04-15T05:32:53;18.63;;;10.30;;
20559;SDS011;10438;51.454;6.718;2023-04-15T05:35:18;21.57;;;10.33;;
20559;SDS011;10438;51.454;6.718;2023-04-15T05:37:44;22.47;;;10.13;;
20559;SDS011;10438;51.454;6.718;2023-04-15T05:40:10;19.37;;;10.03;;
20559;SDS011;10438;51.454;6.718;2023-04-15T05:42:35;16.93;;;10.77;;
20559;SDS011;10438;51.454;6.718;2023-04-15T05:45:01;20.13;;;10.63;;
20559;SDS011;10438;51.454;6.718;2023-04-15T05:47:29;19.63;;;11.17;;
20559;SDS011;10438;51.454;6.718;2023-04-15T05:49:55;17.90;;;10.50;;
20559;SDS011;10438;51.454;6.718;2023-04-15T05:52:20;20.37;;;11.27;;
20559;SDS011;10438;51.454;6.718;2023-04-15T05:54:46;18.10;;;12.10;;
20559;SDS011;10438;51.454;6.718;2023-04-15T05:57:11;17.83;;;10.80;;
20559;SDS011;10438;51.454;6.718;2023-04-15T05:59:37;20.67;;;11.77;;
20559;SDS011;10438;51.454;6.718;2023-04-15T06:02:03;21.03;;;11.87;;
20559;SDS011;10438;51.454;6.718;2023-04-15T06:04:28;20.37;;;12.43;;
20559;SDS011;10438;51.454;6.718;2023-04-15T06:06:54;25.67;;;12.90;;
20559;SDS011;10438;51.454;6.718;2023-04-15T06:09:20;18.83;;;12.20;;
20559;SDS011;10438;51.454;6.718;2023-04-15T06:11:45;22.93;;;12.70;;
20559;SDS011;10438;51.454;6.718;2023-04-15T06:14:11;19.13;;;12.47;;
20559;SDS011;10438;51.454;6.718;2023-04-15T06:16:36;19.63;;;12.80;;
20559;SDS011;10438;51.454;6.718;2023-04-15T06:19:02;20.60;;;13.13;;
20559;SDS011;10438;51.454;6.718;2023-04-15T06:21:28;23.20;;;12.23;;
20559;SDS011;10438;51.454;6.718;2023-04-15T06:23:55;20.77;;;11.87;;
20559;SDS011;10438;51.454;6.718;2023-04-15T06:26:20;22.93;;;12.70;;
20559;SDS011;10438;51.454;6.718;2023-04-15T06:28:46;21.23;;;12.93;;
20559;SDS011;10438;51.454;6.718;2023-04-15T06:31:11;20.90;;;12.77;;
20559;SDS011;10438;51.454;6.718;2023-04-15T06:33:37;22.00;;;12.40;;
20559;SDS011;10438;51.454;6.718;2023-04-15T06:36:03;18.80;;;12.07;;
20559;SDS011;10438;51.454;6.718;2023-04-15T06:38:29;19.67;;;12.47;;
20559;SDS011;10438;51.454;6.718;2023-04-15T06:40:55;19.03;;;12.17;;
20559;SDS011;10438;51.454;6.718;2023-04-15T06:43:20;19.80;;;12.20;;
20559;SDS011;10438;51.454;6.718;2023-04-15T06:45:46;18.03;;;10.77;;
20559;SDS011;10438;51.454;6.718;2023-04-15T06:48:11;20.83;;;11.40;;
20559;SDS011;10438;51.454;6.718;2023-04-15T06:50:37;16.30;;;11.00;;
20559;SDS011;10438;51.454;6.718;2023-04-15T06:53:03;19.17;;;11.20;;
20559;SDS011;10438;51.454;6.718;2023-04-15T06:55:28;18.93;;;11.33;;
20559;SDS011;10438;51.454;6.718;2023-04-15T06:57:55;15.63;;;11.00;;
20559;SDS011;10438;51.454;6.718;2023-04-15T07:00:21;17.17;;;11.33;;
20559;SDS011;10438;51.454;6.718;2023-04-15T07:02:46;18.27;;;11.60;;
20559;SDS011;10438;51.454;6.718;2023-04-15T07:05:12;19.27;;;10.77;;
20559;SDS011;10438;51.454;6.718;2023-04-15T07:07:37;17.87;;;11.63;;
20559;SDS011;10438;51.454;6.718;2023-04-15T07:10:03;16.83;;;11.73;;
20559;SDS011;10438;51.454;6.718;2023-04-15T07:12:29;17.30;;;11.40;;
20559;SDS011;10438;51.454;6.718;2023-04-15T07:14:55;15.00;;;10.47;;
20559;SDS011;10438;51.454;6.718;2023-04-15T07:17:20;15.53;;;10.60;;
20559;SDS011;10438;51.454;6.718;2023-04-15T07:19:46;18.27;;;10.23;;
20559;SDS011;10438;51.454;6.718;2023-04-15T07:22:11;14.97;;;8.10;;
20559;SDS011;10438;51.454;6.718;2023-04-15T07:24:37;14.57;;;8.00;;
20559;SDS011;10438;51.454;6.718;2023-04-15T07:27:02;13.87;;;7.87;;
20559;SDS011;10438;51.454;6.718;2023-04-15T07:29:28;11.13;;;7.13;;
20559;SDS011;10438;51.454;6.718;2023-04-15T07:31:53;11.00;;;6.70;;
20559;SDS011;10438;51.454;6.718;2023-04-15T07:34:21;9.70;;;5.57;;
20559;SDS011;10438;51.454;6.718;2023-04-15T07:36:46;7.40;;;5.13;;
20559;SDS011;10438;51.454;6.718;2023-04-15T07:39:16;8.63;;;4.60;;
20559;SDS011;10438;51.454;6.718;2023-04-15T07:41:42;7.67;;;4.33;;
20559;SDS011;10438;51.454;6.718;2023-04-15T07:44:07;8.30;;;4.73;;
20559;SDS011;10438;51.454;6.718;2023-04-15T07:46:33;6.40;;;3.73;;
20559;SDS011;10438;51.454;6.718;2023-04-15T07:48:59;7.53;;;4.27;;
20559;SDS011;10438;51.454;6.718;2023-04-15T07:51:24;8.17;;;3.87;;
20559;SDS011;10438;51.454;6.718;2023-04-15T07:53:50;6.17;;;3.87;;
20559;SDS011;10438;51.454;6.718;2023-04-15T07:56:15;6.27;;;3.90;;
20559;SDS011;10438;51.454;6.718;2023-04-15T07:58:41;7.63;;;3.97;;
20559;SDS011;10438;51.454;6.718;2023-04-15T08:01:07;9.80;;;3.47;;
20559;SDS011;10438;51.454;6.718;2023-04-15T08:03:33;6.33;;;3.73;;
20559;SDS011;10438;51.454;6.718;2023-04-15T08:05:59;5.63;;;3.77;;
20559;SDS011;10438;51.454;6.718;2023-04-15T08:08:24;7.53;;;4.53;;
20559;SDS011;10438;51.454;6.718;2023-04-15T08:10:50;7.00;;;4.47;;
20559;SDS011;10438;51.454;6.718;2023-04-15T08:13:16;6.33;;;3.77;;
20559;SDS011;10438;51.454;6.718;2023-04-15T08:15:42;7.50;;;3.60;;
20559;SDS011;10438;51.454;6.718;2023-04-15T08:18:07;6.57;;;3.90;;
20559;SDS011;10438;51.454;6.718;2023-04-15T08:20:33;6.27;;;3.30;;
20559;SDS011;10438;51.454;6.718;2023-04-15T08:22:58;5.47;;;3.30;;
20559;SDS011;10438;51.454;6.718;2023-04-15T08:25:24;7.13;;;3.67;;
20559;SDS011;10438;51.454;6.718;2023-04-15T08:27:49;5.80;;;3.07;;
20559;SDS011;10438;51.454;6.718;2023-04-15T08:30:15;5.63;;;3.40;;
20559;SDS011;10438;51.454;6.718;2023-04-15T08:32:41;6.43;;;3.30;;
20559;SDS011;10438;51.454;6.718;2023-04-15T08:35:10;6.90;;;3.90;;
20559;SDS011;10438;51.454;6.718;2023-04-15T08:37:36;6.10;;;3.50;;
20559;SDS011;10438;51.454;6.718;2023-04-15T08:40:02;6.83;;;3.70;;
20559;SDS011;10438;51.454;6.718;2023-04-15T08:42:36;11.73;;;4.27;;
20559;SDS011;10438;51.454;6.718;2023-04-15T08:45:08;14.90;;;4.70;;
20559;SDS011;10438;51.454;6.718;2023-04-15T08:47:37;9.77;;;5.07;;
20559;SDS011;10438;51.454;6.718;2023-04-15T08:50:04;5.90;;;3.60;;
20559;SDS011;10438;51.454;6.718;2023-04-15T08:52:33;9.77;;;3.93;;
20559;SDS011;10438;51.454;6.718;2023-04-15T08:54:59;9.27;;;4.60;;
20559;SDS011;10438;51.454;6.718;2023-04-15T08:57:29;5.83;;;3.60;;
20559;SDS011;10438;51.454;6.718;2023-04-15T08:59:56;7.00;;;3.63;;
20559;SDS011;10438;51.454;6.718;2023-04-15T09:02:22;7.77;;;2.80;;
20559;SDS011;10438;51.454;6.718;2023-04-15T09:04:48;6.07;;;3.03;;
20559;SDS011;10438;51.454;6.718;2023-04-15T09:07:14;11.17;;;3.27;;
20559;SDS011;10438;51.454;6.718;2023-04-15T09:09:40;5.53;;;3.57;;
20559;SDS011;10438;51.454;6.718;2023-04-15T09:12:06;7.37;;;3.50;;
20559;SDS011;10438;51.454;6.718;2023-04-15T09:14:32;6.60;;;3.93;;
20559;SDS011;10438;51.454;6.718;2023-04-15T09:16:59;7.10;;;4.13;;
20559;SDS011;10438;51.454;6.718;2023-04-15T09:19:28;7.10;;;3.87;;
20559;SDS011;10438;51.454;6.718;2023-04-15T09:21:56;6.30;;;3.47;;
20559;SDS011;10438;51.454;6.718;2023-04-15T09:24:23;5.07;;;3.10;;
20559;SDS011;10438;51.454;6.718;2023-04-15T09:26:53;5.10;;;3.00;;
20559;SDS011;10438;51.454;6.718;2023-04-15T09:29:23;5.30;;;2.50;;
20559;SDS011;10438;51.454;6.718;2023-04-15T09:31:50;5.73;;;2.83;;
20559;SDS011;10438;51.454;6.718;2023-04-15T09:34:16;4.93;;;2.80;;
20559;SDS011;10438;51.454;6.718;2023-04-15T09:36:55;8.17;;;2.40;;
20559;SDS011;10438;51.454;6.718;2023-04-15T09:39:21;8.53;;;2.90;;
20559;SDS011;10438;51.454;6.718;2023-04-15T09:41:51;9.93;;;3.90;;
20559;SDS011;10438;51.454;6.718;2023-04-15T09:44:29;9.87;;;2.97;;
20559;SDS011;10438;51.454;6.718;2023-04-15T09:46:55;6.10;;;3.10;;
20559;SDS011;10438;51.454;6.718;2023-04-15T09:49:20;6.13;;;2.90;;
20559;SDS011;10438;51.454;6.718;2023-04-15T09:51:46;6.43;;;3.30;;
20559;SDS011;10438;51.454;6.718;2023-04-15T09:54:11;7.07;;;3.50;;
20559;SDS011;10438;51.454;6.718;2023-04-15T09:56:37;9.77;;;4.07;;
20559;SDS011;10438;51.454;6.718;2023-04-15T09:59:07;9.83;;;3.70;;
20559;SDS011;10438;51.454;6.718;2023-04-15T10:01:33;6.13;;;3.70;;
20559;SDS011;10438;51.454;6.718;2023-04-15T10:04:01;9.67;;;4.63;;
20559;SDS011;10438;51.454;6.718;2023-04-15T10:06:28;6.90;;;3.90;;
20559;SDS011;10438;51.454;6.718;2023-04-15T10:08:54;6.33;;;3.80;;
20559;SDS011;10438;51.454;6.718;2023-04-15T10:11:21;5.77;;;3.30;;
20559;SDS011;10438;51.454;6.718;2023-04-15T10:13:48;7.37;;;4.13;;
20559;SDS011;10438;51.454;6.718;2023-04-15T10:16:15;6.40;;;4.00;;
20559;SDS011;10438;51.454;6.718;2023-04-15T10:18:44;6.63;;;3.83;;
20559;SDS011;10438;51.454;6.718;2023-04-15T10:21:11;7.53;;;4.60;;
20559;SDS011;10438;51.454;6.718;2023-04-15T10:23:42;8.27;;;4.30;;
20559;SDS011;10438;51.454;6.718;2023-04-15T10:26:11;9.20;;;4.83;;
20559;SDS011;10438;51.454;6.718;2023-04-15T10:28:38;10.60;;;4.57;;
20559;SDS011;10438;51.454;6.718;2023-04-15T10:31:05;9.23;;;4.40;;
20559;SDS011;10438;51.454;6.718;2023-04-15T10:33:31;6.50;;;4.13;;
20559;SDS011;10438;51.454;6.718;2023-04-15T10:35:58;7.53;;;4.13;;
20559;SDS011;10438;51.454;6.718;2023-04-15T10:38:41;9.63;;;4.13;;
20559;SDS011;10438;51.454;6.718;2023-04-15T10:41:11;10.57;;;4.77;;
20559;SDS011;10438;51.454;6.718;2023-04-15T10:43:45;6.57;;;4.37;;
20559;SDS011;10438;51.454;6.718;2023-04-15T10:46:20;7.00;;;4.57;;
20559;SDS011;10438;51.454;6.718;2023-04-15T10:49:07;9.20;;;4.37;;
20559;SDS011;10438;51.454;6.718;2023-04-15T10:51:34;7.03;;;4.33;;
20559;SDS011;10438;51.454;6.718;2023-04-15T10:54:06;6.27;;;4.00;;
20559;SDS011;10438;51.454;6.718;2023-04-15T10:56:34;6.07;;;3.33;;
20559;SDS011;10438;51.454;6.718;2023-04-15T10:58:59;7.23;;;4.27;;
20559;SDS011;10438;51.454;6.718;2023-04-15T11:07:36;8.03;;;4.07;;
20559;SDS011;10438;51.454;6.718;2023-04-15T11:12:37;7.57;;;3.90;;
20559;SDS011;10438;51.454;6.718;2023-04-15T11:17:51;14.50;;;7.13;;
20559;SDS011;10438;51.454;6.718;2023-04-15T11:20:17;7.23;;;4.50;;
20559;SDS011;10438;51.454;6.718;2023-04-15T11:22:46;7.13;;;3.93;;
20559;SDS011;10438;51.454;6.718;2023-04-15T11:25:34;7.07;;;3.67;;
20559;SDS011;10438;51.454;6.718;2023-04-15T11:28:01;5.67;;;3.37;;
20559;SDS011;10438;51.454;6.718;2023-04-15T11:30:27;4.90;;;3.10;;
20559;SDS011;10438;51.454;6.718;2023-04-15T11:33:03;9.80;;;3.80;;
20559;SDS011;10438;51.454;6.718;2023-04-15T11:35:29;7.87;;;3.93;;
20559;SDS011;10438;51.454;6.718;2023-04-15T11:37:56;6.30;;;3.90;;
20559;SDS011;10438;51.454;6.718;2023-04-15T11:40:27;11.27;;;4.07;;
20559;SDS011;10438;51.454;6.718;2023-04-15T11:45:54;6.20;;;3.20;;
20559;SDS011;10438;51.454;6.718;2023-04-15T11:48:28;5.47;;;3.23;;
20559;SDS011;10438;51.454;6.718;2023-04-15T11:50:59;8.77;;;3.40;;
20559;SDS011;10438;51.454;6.718;2023-04-15T11:53:43;12.00;;;3.60;;
20559;SDS011;10438;51.454;6.718;2023-04-15T11:56:17;4.97;;;3.03;;
20559;SDS011;10438;51.454;6.718;2023-04-15T11:58:45;5.23;;;3.10;;
20559;SDS011;10438;51.454;6.718;2023-04-15T12:01:10;5.63;;;3.07;;
20559;SDS011;10438;51.454;6.718;2023-04-15T12:13:52;6.00;;;3.20;;
20559;SDS011;10438;51.454;6.718;2023-04-15T12:16:20;6.27;;;3.20;;
20559;SDS011;10438;51.454;6.718;2023-04-15T12:18:47;6.30;;;3.30;;
20559;SDS011;10438;51.454;6.718;2023-04-15T12:21:17;9.20;;;3.80;;
20559;SDS011;10438;51.454;6.718;2023-04-15T12:23:51;6.83;;;3.47;;
20559;SDS011;10438;51.454;6.718;2023-04-15T12:26:17;7.70;;;3.90;;
20559;SDS011;10438;51.454;6.718;2023-04-15T12:28:52;9.33;;;3.40;;
20559;SDS011;10438;51.454;6.718;2023-04-15T12:31:20;7.17;;;3.70;;
20559;SDS011;10438;51.454;6.718;2023-04-15T12:33:47;5.80;;;3.40;;
20559;SDS011;10438;51.454;6.718;2023-04-15T12:36:13;6.33;;;3.60;;
20559;SDS011;10438;51.454;6.718;2023-04-15T12:38:38;9.73;;;3.93;;
20559;SDS011;10438;51.454;6.718;2023-04-15T12:41:04;6.20;;;3.33;;
20559;SDS011;10438;51.454;6.718;2023-04-15T12:43:29;5.47;;;2.70;;
20559;SDS011;10438;51.454;6.718;2023-04-15T12:45:55;5.00;;;2.63;;
20559;SDS011;10438;51.454;6.718;2023-04-15T12:48:20;6.17;;;3.23;;
20559;SDS011;10438;51.454;6.718;2023-04-15T12:50:46;7.67;;;3.30;;
20559;SDS011;10438;51.454;6.718;2023-04-15T12:53:12;6.90;;;3.13;;
20559;SDS011;10438;51.454;6.718;2023-04-15T12:55:37;7.10;;;3.37;;
20559;SDS011;10438;51.454;6.718;2023-04-15T12:58:03;5.80;;;3.40;;
20559;SDS011;10438;51.454;6.718;2023-04-15T13:00:28;6.43;;;3.30;;
20559;SDS011;10438;51.454;6.718;2023-04-15T13:02:54;10.67;;;3.47;;
20559;SDS011;10438;51.454;6.718;2023-04-15T13:05:19;11.03;;;3.60;;
20559;SDS011;10438;51.454;6.718;2023-04-15T13:07:45;5.13;;;2.67;;
20559;SDS011;10438;51.454;6.718;2023-04-15T13:10:10;4.27;;;2.17;;
20559;SDS011;10438;51.454;6.718;2023-04-15T13:12:36;4.90;;;2.37;;
20559;SDS011;10438;51.454;6.718;2023-04-15T13:15:02;7.87;;;2.37;;
20559;SDS011;10438;51.454;6.718;2023-04-15T13:17:28;5.73;;;2.70;;
20559;SDS011;10438;51.454;6.718;2023-04-15T13:19:54;9.67;;;4.70;;
20559;SDS011;10438;51.454;6.718;2023-04-15T13:22:20;7.10;;;3.63;;
20559;SDS011;10438;51.454;6.718;2023-04-15T13:24:45;7.53;;;2.97;;
20559;SDS011;10438;51.454;6.718;2023-04-15T13:27:11;8.07;;;3.50;;
20559;SDS011;10438;51.454;6.718;2023-04-15T13:29:36;11.13;;;3.53;;
20559;SDS011;10438;51.454;6.718;2023-04-15T13:32:02;6.53;;;2.80;;
20559;SDS011;10438;51.454;6.718;2023-04-15T13:34:28;6.43;;;2.40;;
20559;SDS011;10438;51.454;6.718;2023-04-15T13:36:53;5.53;;;2.13;;
20559;SDS011;10438;51.454;6.718;2023-04-15T13:39:19;11.13;;;3.60;;
20559;SDS011;10438;51.454;6.718;2023-04-15T13:41:45;9.47;;;3.40;;
20559;SDS011;10438;51.454;6.718;2023-04-15T13:44:12;7.13;;;3.00;;
20559;SDS011;10438;51.454;6.718;2023-04-15T13:46:38;6.13;;;2.70;;
20559;SDS011;10438;51.454;6.718;2023-04-15T13:49:05;8.30;;;3.10;;
20559;SDS011;10438;51.454;6.718;2023-04-15T13:51:31;8.07;;;3.10;;
20559;SDS011;10438;51.454;6.718;2023-04-15T13:53:56;7.63;;;3.43;;
20559;SDS011;10438;51.454;6.718;2023-04-15T13:56:22;7.97;;;3.87;;
20559;SDS011;10438;51.454;6.718;2023-04-15T13:58:48;6.53;;;3.00;;
20559;SDS011;10438;51.454;6.718;2023-04-15T14:01:13;6.87;;;3.07;;
20559;SDS011;10438;51.454;6.718;2023-04-15T14:03:39;7.23;;;3.07;;
20559;SDS011;10438;51.454;6.718;2023-04-15T14:06:05;5.70;;;2.57;;
20559;SDS011;10438;51.454;6.718;2023-04-15T14:08:30;8.27;;;2.80;;
20559;SDS011;10438;51.454;6.718;2023-04-15T14:10:56;11.50;;;3.30;;
20559;SDS011;10438;51.454;6.718;2023-04-15T14:13:22;6.73;;;2.90;;
20559;SDS011;10438;51.454;6.718;2023-04-15T14:15:47;7.57;;;2.60;;
20559;SDS011;10438;51.454;6.718;2023-04-15T14:18:13;4.27;;;2.30;;
20559;SDS011;10438;51.454;6.718;2023-04-15T14:20:38;6.90;;;2.60;;
20559;SDS011;10438;51.454;6.718;2023-04-15T14:23:04;7.50;;;2.57;;
20559;SDS011;10438;51.454;6.718;2023-04-15T14:25:30;5.93;;;2.40;;
20559;SDS011;10438;51.454;6.718;2023-04-15T14:27:55;6.33;;;2.53;;
20559;SDS011;10438;51.454;6.718;2023-04-15T14:30:21;6.77;;;2.60;;
20559;SDS011;10438;51.454;6.718;2023-04-15T14:32:46;11.53;;;4.33;;
20559;SDS011;10438;51.454;6.718;2023-04-15T14:35:12;10.53;;;4.17;;
20559;SDS011;10438;51.454;6.718;2023-04-15T14:37:37;11.10;;;4.20;;
20559;SDS011;10438;51.454;6.718;2023-04-15T14:40:03;9.47;;;3.13;;
20559;SDS011;10438;51.454;6.718;2023-04-15T14:42:29;4.67;;;2.60;;
20559;SDS011;10438;51.454;6.718;2023-04-15T14:44:54;6.13;;;3.07;;
20559;SDS011;10438;51.454;6.718;2023-04-15T14:47:20;8.37;;;2.77;;
20559;SDS011;10438;51.454;6.718;2023-04-15T14:49:45;4.20;;;2.17;;
20559;SDS011;10438;51.454;6.718;2023-04-15T14:52:11;8.23;;;2.30;;
20559;SDS011;10438;51.454;6.718;2023-04-15T14:54:36;5.07;;;2.37;;
20559;SDS011;10438;51.454;6.718;2023-04-15T14:57:02;4.93;;;2.27;;
20559;SDS011;10438;51.454;6.718;2023-04-15T14:59:27;5.83;;;2.30;;